Time;durP1;ratioP1;P1;durP2;ratioP2;P2;SDS_P1;SDS_P2;PMS_P1;PMS_P2;Temp;Humidity;BMP_temperature;BMP_pressure;BME280_temperature;BME280_humidity;BME280_pressure;Samples;Min_cycle;Max_cycle;Signal;HPM_P1;HPM_P2
2022/06/10 00:01:07;;;;;;;9.90;7.10;;;;;;;20.68;73.37;99334.66;4383342;32;33375;-85
2022/06/10 00:03:36;;;;;;;8.48;7.30;;;;;;;20.69;73.52;99336.34;4380098;32;33294;-85
2022/06/10 00:06:06;;;;;;;8.40;7.00;;;;;;;20.62;73.89;99327.19;4369719;32;32368;-86
2022/06/10 00:08:41;;;;;;;8.63;6.60;;;;;;;20.60;73.88;99337.19;4380455;32;32988;-87
2022/06/10 00:11:10;;;;;;;8.10;6.93;;;;;;;20.60;73.68;99349.75;4386211;32;33935;-88
2022/06/10 00:13:44;;;;;;;7.60;6.90;;;;;;;20.75;72.78;99343.00;4352612;32;33421;-88
2022/06/10 00:16:14;;;;;;;7.90;6.95;;;;;;;20.28;74.88;99341.97;4376767;32;34506;-87
2022/06/10 00:18:42;;;;;;;10.27;7.05;;;;;;;20.30;74.38;99338.16;4382580;32;35235;-87
2022/06/10 00:21:12;;;;;;;6.87;6.28;;;;;;;20.57;73.58;99345.53;4376264;32;33801;-86
2022/06/10 00:23:40;;;;;;;10.73;7.28;;;;;;;20.46;73.91;99337.59;4382377;32;33007;-85
2022/06/10 00:26:08;;;;;;;7.18;6.47;;;;;;;20.53;73.17;99343.28;4371482;32;33564;-84
2022/06/10 00:28:36;;;;;;;6.43;5.78;;;;;;;20.39;73.88;99342.66;4386175;32;34694;-84
2022/06/10 00:31:04;;;;;;;7.53;6.62;;;;;;;20.55;73.21;99347.50;4392912;32;33573;-84
2022/06/10 00:33:34;;;;;;;7.47;6.75;;;;;;;20.79;72.08;99346.22;4382729;32;33696;-84
2022/06/10 00:36:02;;;;;;;8.57;7.22;;;;;;;20.58;72.79;99352.59;4377756;32;33811;-84
2022/06/10 00:38:30;;;;;;;7.68;6.60;;;;;;;20.46;73.22;99348.31;4393148;32;33970;-84
2022/06/10 00:40:58;;;;;;;9.80;6.75;;;;;;;20.55;72.79;99347.50;4394834;32;33991;-84
2022/06/10 00:43:29;;;;;;;8.43;6.85;;;;;;;20.36;73.94;99358.19;4383532;32;33235;-84
2022/06/10 00:46:18;;;;;;;7.78;6.75;;;;;;;20.62;72.51;99354.00;4374375;32;32597;-84
2022/06/10 00:48:52;;;;;;;6.65;6.03;;;;;;;20.77;72.12;99359.78;4372986;32;33643;-84
2022/06/10 00:51:31;;;;;;;8.68;6.93;;;;;;;20.83;71.75;99361.88;4382285;32;34178;-84
2022/06/10 00:54:10;;;;;;;11.68;7.90;;;;;;;20.45;72.97;99363.56;4383256;32;33364;-84
2022/06/10 00:56:41;;;;;;;9.07;7.12;;;;;;;20.34;73.71;99365.53;4359229;32;33715;-84
2022/06/10 00:59:16;;;;;;;9.35;7.05;;;;;;;20.28;74.03;99366.94;4383542;32;34520;-84
2022/06/10 01:01:44;;;;;;;8.52;7.62;;;;;;;20.26;74.01;99357.34;4383406;32;33987;-85
2022/06/10 01:04:12;;;;;;;11.65;7.15;;;;;;;20.30;74.01;99353.41;4387649;32;32532;-85
2022/06/10 01:06:39;;;;;;;15.32;8.18;;;;;;;20.11;74.03;99352.38;4373546;32;33794;-84
2022/06/10 01:09:07;;;;;;;11.93;8.07;;;;;;;20.17;73.91;99359.84;4406818;32;34019;-84
2022/06/10 01:11:50;;;;;;;9.82;7.80;;;;;;;20.56;72.47;99354.56;4406738;32;34695;-84
2022/06/10 01:14:45;;;;;;;8.95;6.65;;;;;;;20.34;73.45;99358.34;4394678;32;33436;-84
2022/06/10 01:17:41;;;;;;;9.57;8.05;;;;;;;20.11;74.20;99365.78;4382222;32;33291;-83
2022/06/10 01:20:31;;;;;;;8.15;7.22;;;;;;;20.38;73.19;99365.12;4380221;32;33470;-84
2022/06/10 01:23:22;;;;;;;13.00;8.15;;;;;;;20.30;73.45;99364.97;4382602;32;33877;-83
2022/06/10 01:26:28;;;;;;;15.63;8.43;;;;;;;20.27;73.08;99372.44;4392044;32;33682;-83
2022/06/10 01:29:24;;;;;;;11.23;7.60;;;;;;;20.32;73.06;99373.72;4386531;32;32730;-83
2022/06/10 01:31:59;;;;;;;9.13;8.23;;;;;;;20.35;72.78;99373.44;4380569;32;33145;-83
2022/06/10 01:34:35;;;;;;;9.65;8.75;;;;;;;20.02;74.26;99382.69;4363976;32;32901;-84
2022/06/10 01:37:07;;;;;;;10.45;8.05;;;;;;;20.30;73.07;99382.88;4389032;32;33483;-84
2022/06/10 01:40:18;;;;;;;9.50;8.30;;;;;;;20.30;73.10;99378.38;4379114;32;33758;-83
2022/06/10 01:42:54;;;;;;;11.90;8.45;;;;;;;20.31;72.92;99382.75;4382529;32;33641;-83
2022/06/10 01:45:33;;;;;;;9.63;8.05;;;;;;;20.33;72.91;99377.25;4390577;32;33977;-84
2022/06/10 01:48:05;;;;;;;11.45;8.25;;;;;;;20.32;73.02;99386.25;4381193;32;33703;-83
2022/06/10 01:50:49;;;;;;;9.05;8.15;;;;;;;20.20;73.62;99393.59;4383446;32;33834;-84
2022/06/10 01:53:25;;;;;;;10.15;8.48;;;;;;;20.28;73.21;99392.91;4393607;32;34028;-84
2022/06/10 01:56:00;;;;;;;11.93;8.48;;;;;;;20.35;72.75;99394.03;4387787;32;34436;-84
2022/06/10 01:58:40;;;;;;;11.43;8.75;;;;;;;20.45;72.23;99384.16;4376298;32;32955;-84
2022/06/10 02:01:21;;;;;;;12.52;8.63;;;;;;;20.36;72.76;99395.72;4378152;32;33984;-84
2022/06/10 02:03:54;;;;;;;11.68;8.52;;;;;;;20.37;72.61;99402.81;4371147;32;33933;-85
2022/06/10 02:06:27;;;;;;;10.65;7.32;;;;;;;20.46;72.13;99423.41;4379262;32;33846;-84
2022/06/10 02:09:02;;;;;;;12.23;8.57;;;;;;;20.27;73.03;99434.09;4363473;32;32982;-84
2022/06/10 02:11:32;;;;;;;10.82;8.23;;;;;;;20.53;71.90;99438.00;4372534;32;32662;-83
2022/06/10 02:14:07;;;;;;;10.50;8.77;;;;;;;20.35;72.86;99436.94;4391680;32;34744;-83
2022/06/10 02:16:39;;;;;;;10.43;9.43;;;;;;;20.23;73.22;99432.69;4373368;32;34392;-83
2022/06/10 02:19:28;;;;;;;10.32;9.23;;;;;;;20.37;72.62;99437.66;4375860;32;33337;-83
2022/06/10 02:22:00;;;;;;;9.23;8.32;;;;;;;20.19;73.25;99449.03;4372647;32;33649;-83
2022/06/10 02:24:43;;;;;;;14.38;10.35;;;;;;;20.11;73.72;99446.19;4383882;32;33252;-82
2022/06/10 02:27:16;;;;;;;11.40;10.13;;;;;;;20.19;73.35;99454.41;4393552;32;33710;-83
2022/06/10 02:30:00;;;;;;;12.82;9.65;;;;;;;20.22;73.18;99464.00;4397810;32;33927;-83
2022/06/10 02:32:28;;;;;;;10.43;9.00;;;;;;;20.47;72.26;99470.75;4379523;32;33192;-83
2022/06/10 02:34:57;;;;;;;10.63;9.52;;;;;;;20.59;71.37;99483.03;4387786;32;33634;-83
2022/06/10 02:37:38;;;;;;;14.82;10.48;;;;;;;20.23;73.26;99497.03;4379456;32;33764;-82
2022/06/10 02:40:09;;;;;;;12.27;10.20;;;;;;;19.86;74.58;99492.22;4385027;32;33549;-82
2022/06/10 02:42:55;;;;;;;11.43;9.68;;;;;;;20.20;73.86;99492.78;4383858;32;33203;-85
2022/06/10 02:45:57;;;;;;;11.65;10.15;;;;;;;20.54;72.20;99496.00;4379883;32;34612;-83
2022/06/10 02:48:30;;;;;;;14.70;10.60;;;;;;;20.25;73.54;99481.66;4394172;32;35084;-85
2022/06/10 02:50:57;;;;;;;12.48;9.65;;;;;;;20.27;73.67;99477.00;4380270;32;33332;-85
2022/06/10 02:53:25;;;;;;;14.87;11.20;;;;;;;20.48;72.84;99491.22;4367843;32;32685;-86
2022/06/10 02:55:53;;;;;;;11.63;10.02;;;;;;;20.61;72.12;99491.81;4380425;32;32844;-85
2022/06/10 03:01:35;;;;;;;11.05;9.90;;;;;;;20.49;72.91;99502.78;4397638;32;34474;-86
2022/06/10 03:04:13;;;;;;;16.55;11.25;;;;;;;20.51;72.94;99512.41;4407681;32;33957;-85
2022/06/10 03:06:47;;;;;;;13.18;10.73;;;;;;;20.03;75.09;99504.13;4383002;32;32815;-85
2022/06/10 03:09:15;;;;;;;12.10;10.20;;;;;;;20.36;73.91;99497.63;4365288;32;32960;-86
2022/06/10 03:12:14;;;;;;;15.52;10.48;;;;;;;20.39;73.61;99481.28;4365165;32;32575;-86
2022/06/10 03:15:00;;;;;;;12.40;11.10;;;;;;;20.27;74.04;99485.91;4377656;32;33740;-86
2022/06/10 03:17:52;;;;;;;12.37;10.63;;;;;;;20.53;72.95;99494.31;4387756;32;33660;-85
2022/06/10 03:20:52;;;;;;;11.85;10.60;;;;;;;20.22;74.13;99496.16;4352968;32;34178;-85
2022/06/10 03:23:27;;;;;;;14.60;10.85;;;;;;;20.33;73.73;99497.91;4365312;32;33309;-85
2022/06/10 03:26:00;;;;;;;12.80;10.88;;;;;;;19.83;75.59;99500.50;4383476;32;34003;-85
2022/06/10 03:28:50;;;;;;;13.55;11.55;;;;;;;20.16;74.51;99502.91;4369541;32;34555;-85
2022/06/10 03:31:34;;;;;;;16.05;12.55;;;;;;;20.28;74.15;99500.16;4389082;32;34137;-85
2022/06/10 03:34:15;;;;;;;13.25;11.82;;;;;;;20.14;74.81;99507.59;4363136;32;33416;-85
2022/06/10 03:36:44;;;;;;;17.80;11.35;;;;;;;20.32;74.15;99499.75;4379764;32;32635;-85
2022/06/10 03:39:12;;;;;;;15.68;11.75;;;;;;;20.58;72.77;99510.00;4392512;32;33836;-85
2022/06/10 03:41:53;;;;;;;14.55;10.50;;;;;;;20.47;73.32;99510.97;4376229;32;34003;-85
2022/06/10 03:44:21;;;;;;;16.17;11.27;;;;;;;20.43;73.88;99514.88;4374447;32;34904;-86
2022/06/10 03:46:51;;;;;;;13.90;11.23;;;;;;;20.32;74.18;99515.84;4371084;32;33693;-86
2022/06/10 03:49:21;;;;;;;17.77;12.27;;;;;;;20.34;74.17;99521.91;4371038;32;33219;-84
2022/06/10 03:51:50;;;;;;;13.88;11.80;;;;;;;20.66;73.15;99524.44;4382045;32;33789;-85
2022/06/10 03:54:19;;;;;;;13.23;11.75;;;;;;;20.56;73.14;99522.72;4364745;32;32923;-84
2022/06/10 03:56:47;;;;;;;14.80;10.55;;;;;;;20.45;73.81;99513.75;4398006;32;34355;-84
2022/06/10 03:59:14;;;;;;;14.30;10.60;;;;;;;20.67;72.33;99515.38;4386782;32;33753;-84
2022/06/10 04:01:42;;;;;;;11.07;9.98;;;;;;;20.55;72.44;99519.16;4381336;32;34389;-84
2022/06/10 04:04:09;;;;;;;15.52;11.50;;;;;;;20.41;72.76;99524.88;4385065;32;34536;-85
2022/06/10 04:06:37;;;;;;;12.63;11.27;;;;;;;20.48;72.80;99528.75;4359540;32;33490;-85
2022/06/10 04:09:25;;;;;;;13.52;11.12;;;;;;;20.34;73.74;99537.16;4389228;32;32947;-83
2022/06/10 04:11:52;;;;;;;14.02;11.25;;;;;;;20.24;74.11;99536.25;4385445;32;34333;-83
2022/06/10 04:14:20;;;;;;;13.20;11.60;;;;;;;20.25;74.65;99546.00;4372577;32;32986;-85
2022/06/10 04:16:48;;;;;;;14.65;11.05;;;;;;;20.23;74.37;99539.94;4381888;32;34516;-85
2022/06/10 04:19:16;;;;;;;15.02;10.63;;;;;;;20.56;72.65;99536.13;4404840;32;34810;-84
2022/06/10 04:21:44;;;;;;;17.00;11.65;;;;;;;20.44;73.50;99535.34;4384971;32;34350;-84
2022/06/10 04:24:11;;;;;;;12.80;10.98;;;;;;;20.21;74.54;99543.56;4381825;32;34360;-87
2022/06/10 04:26:39;;;;;;;10.73;9.63;;;;;;;20.52;72.88;99535.53;4384816;32;33498;-85
2022/06/10 04:29:07;;;;;;;12.27;10.30;;;;;;;20.38;74.14;99552.81;4371715;32;177726;-85
2022/06/10 04:31:35;;;;;;;16.50;10.70;;;;;;;20.52;73.43;99535.53;4377838;32;34065;-84
2022/06/10 04:34:03;;;;;;;12.10;10.75;;;;;;;20.67;72.57;99539.53;4394369;32;33418;-84
2022/06/10 04:36:30;;;;;;;10.55;9.38;;;;;;;20.78;72.23;99543.94;4403587;32;33811;-85
2022/06/10 04:38:58;;;;;;;11.57;9.13;;;;;;;20.60;72.82;99543.72;4385455;32;34708;-84
2022/06/10 04:41:25;;;;;;;12.80;9.45;;;;;;;20.63;72.53;99548.00;4397076;32;34873;-84
2022/06/10 04:43:53;;;;;;;9.73;8.75;;;;;;;20.62;72.25;99552.50;4385264;32;32142;-85
2022/06/10 04:46:31;;;;;;;10.10;8.90;;;;;;;20.32;73.57;99564.09;4383250;32;33113;-86
2022/06/10 04:48:59;;;;;;;9.00;8.02;;;;;;;20.65;72.32;99549.56;4377707;32;33523;-86
2022/06/10 04:51:27;;;;;;;8.52;7.72;;;;;;;20.36;73.56;99549.41;4389282;32;33307;-85
2022/06/10 04:53:55;;;;;;;11.38;8.15;;;;;;;20.44;73.30;99554.97;4380194;32;33588;-85
2022/06/10 04:56:22;;;;;;;11.85;7.90;;;;;;;20.87;71.69;99561.88;4371352;32;33624;-86
2022/06/10 04:58:50;;;;;;;8.15;7.37;;;;;;;21.05;70.96;99556.69;4358500;32;33320;-86
2022/06/10 05:01:18;;;;;;;13.07;8.77;;;;;;;21.15;70.64;99564.75;4394181;32;34766;-86
2022/06/10 05:03:52;;;;;;;10.27;8.13;;;;;;;20.88;71.64;99568.94;4380183;32;32637;-86
2022/06/10 05:06:19;;;;;;;8.63;7.72;;;;;;;20.88;71.41;99573.47;4357855;32;33241;-87
2022/06/10 05:08:47;;;;;;;8.80;7.93;;;;;;;20.91;71.89;99568.66;4369388;32;34167;-85
2022/06/10 05:11:15;;;;;;;8.65;7.82;;;;;;;20.83;72.27;99573.03;4385898;32;32743;-85
2022/06/10 05:13:42;;;;;;;9.82;7.47;;;;;;;21.00;72.26;99574.19;4372413;32;33555;-85
2022/06/10 05:16:11;;;;;;;12.63;7.87;;;;;;;21.45;70.17;99580.75;4357198;32;32957;-86
2022/06/10 05:18:39;;;;;;;7.97;7.18;;;;;;;21.39;70.92;99583.16;4368114;32;34028;-86
2022/06/10 05:21:07;;;;;;;8.68;7.12;;;;;;;21.53;70.94;99571.16;4394256;32;33607;-85
2022/06/10 05:23:35;;;;;;;9.25;7.15;;;;;;;21.77;69.40;99581.44;4371680;32;33765;-85
2022/06/10 05:26:03;;;;;;;12.50;7.32;;;;;;;21.84;68.93;99580.72;4398553;32;33381;-85
2022/06/10 05:28:35;;;;;;;;;;;;;;;22.06;68.67;99584.06;4400147;32;34678;-86
2022/06/10 05:31:02;;;;;;;7.07;6.37;;;;;;;22.37;67.22;99595.47;4388839;32;33601;-85
2022/06/10 05:34:44;;;;;;;10.32;7.80;;;;;;;22.20;67.72;99594.38;4362138;32;32502;-85
2022/06/10 05:36:18;;;;;;;8.88;6.95;;;;;;;21.98;68.75;99595.53;4385165;32;34367;-85
2022/06/10 05:38:45;;;;;;;9.55;6.82;;;;;;;22.09;68.80;99598.06;4357599;32;32937;-86
2022/06/10 05:43:59;;;;;;;8.05;7.25;;;;;;;22.38;67.71;99613.31;4391899;32;33247;-86
2022/06/10 05:46:27;;;;;;;8.35;6.90;;;;;;;22.35;67.33;99613.59;4354211;32;34229;-86
2022/06/10 05:48:54;;;;;;;7.95;6.87;;;;;;;22.54;67.69;99605.44;4361300;32;35664;-86
2022/06/10 05:51:22;;;;;;;7.35;6.53;;;;;;;22.94;66.72;99607.00;4371625;32;33452;-86
2022/06/10 05:53:50;;;;;;;9.90;7.10;;;;;;;22.62;66.01;99613.63;4374768;32;33817;-86
2022/06/10 05:56:17;;;;;;;7.87;6.22;;;;;;;23.11;64.42;99614.22;4368300;32;34152;-86
2022/06/10 05:58:45;;;;;;;8.27;6.72;;;;;;;23.10;63.74;99609.84;4397600;32;34412;-86
2022/06/10 06:01:12;;;;;;;11.23;6.78;;;;;;;23.21;64.12;99619.56;4360951;32;34366;-86
2022/06/10 06:03:41;;;;;;;7.22;6.53;;;;;;;23.03;63.06;99624.94;4384195;32;34020;-86
2022/06/10 06:06:10;;;;;;;6.95;6.25;;;;;;;22.93;64.26;99622.31;4367517;32;33083;-86
2022/06/10 06:08:37;;;;;;;8.45;6.50;;;;;;;22.91;65.01;99631.50;4361259;32;33033;-85
2022/06/10 06:11:05;;;;;;;9.13;7.45;;;;;;;22.90;65.16;99627.13;4381042;32;33773;-85
2022/06/10 06:13:32;;;;;;;11.05;6.65;;;;;;;22.75;64.73;99630.28;4373558;32;34354;-85
2022/06/10 06:16:00;;;;;;;8.75;6.85;;;;;;;22.80;65.38;99626.31;4382874;32;32949;-86
2022/06/10 06:18:28;;;;;;;11.32;6.25;;;;;;;22.88;65.73;99634.47;4384561;32;34437;-85
2022/06/10 06:20:55;;;;;;;7.53;6.15;;;;;;;23.07;63.87;99631.69;4384649;32;34122;-85
2022/06/10 06:23:23;;;;;;;7.68;6.97;;;;;;;23.40;63.82;99632.03;4393553;32;33158;-85
2022/06/10 06:25:51;;;;;;;8.65;6.25;;;;;;;23.38;64.10;99640.28;4371403;32;33303;-85
2022/06/10 06:28:18;;;;;;;9.30;6.40;;;;;;;23.43;63.37;99637.97;4388790;32;33689;-85
2022/06/10 06:30:46;;;;;;;7.22;6.57;;;;;;;23.68;63.29;99638.22;4360318;32;33809;-85
2022/06/10 06:33:14;;;;;;;7.97;5.43;;;;;;;23.79;63.75;99642.56;4383764;32;32944;-85
2022/06/10 06:35:45;;;;;;;6.22;5.62;;;;;;;23.74;62.89;99635.78;4375199;32;32625;-85
2022/06/10 06:38:13;;;;;;;5.82;5.22;;;;;;;23.75;62.76;99645.56;4380698;32;33142;-84
2022/06/10 06:40:42;;;;;;;6.12;5.53;;;;;;;24.02;61.82;99641.91;4361509;32;32884;-85
2022/06/10 06:43:10;;;;;;;6.47;5.87;;;;;;;24.07;60.78;99644.13;4386452;32;33258;-85
2022/06/10 06:45:40;;;;;;;7.37;6.68;;;;;;;23.66;62.12;99649.19;4371989;32;34504;-85
2022/06/10 06:48:09;;;;;;;8.82;5.97;;;;;;;23.87;62.63;99656.09;4381279;32;33583;-85
2022/06/10 06:50:43;;;;;;;6.20;5.45;;;;;;;24.03;61.95;99658.94;4371881;32;34336;-85
2022/06/10 06:53:11;;;;;;;5.80;4.95;;;;;;;24.29;61.21;99653.53;4386594;32;33995;-86
2022/06/10 06:55:41;;;;;;;6.87;5.28;;;;;;;24.65;60.27;99650.75;4375626;32;34569;-85
2022/06/10 06:58:12;;;;;;;5.62;5.12;;;;;;;24.63;59.03;99647.38;4378393;32;33021;-85
2022/06/10 07:00:46;;;;;;;5.55;4.60;;;;;;;24.70;60.27;99649.28;4387642;32;34591;-84
2022/06/10 07:03:14;;;;;;;10.57;4.93;;;;;;;24.76;59.83;99642.37;4358550;32;33942;-85
2022/06/10 07:05:42;;;;;;;6.28;5.68;;;;;;;25.08;58.47;99647.09;4385895;32;34353;-84
2022/06/10 07:08:11;;;;;;;5.65;5.05;;;;;;;24.71;59.29;99650.97;4387395;32;33374;-85
2022/06/10 07:10:39;;;;;;;9.25;4.80;;;;;;;24.64;59.38;99649.03;4371608;32;35106;-85
2022/06/10 07:13:07;;;;;;;5.00;4.28;;;;;;;25.02;58.52;99656.66;4384625;32;34304;-84
2022/06/10 07:15:37;;;;;;;6.62;5.05;;;;;;;25.24;57.76;99657.94;4384357;32;33737;-86
2022/06/10 07:18:05;;;;;;;7.57;5.30;;;;;;;25.52;57.69;99649.56;4366923;32;32989;-84
2022/06/10 07:20:35;;;;;;;5.15;4.43;;;;;;;25.28;57.16;99648.50;4399885;32;36506;-85
2022/06/10 07:23:03;;;;;;;6.47;5.07;;;;;;;25.59;57.15;99650.59;4388681;32;32592;-85
2022/06/10 07:25:32;;;;;;;6.95;4.28;;;;;;;26.02;56.48;99645.91;4381743;32;34385;-85
2022/06/10 07:28:00;;;;;;;6.03;4.30;;;;;;;26.26;55.96;99651.28;4397403;32;33827;-85
2022/06/10 07:30:30;;;;;;;9.25;5.22;;;;;;;26.36;55.22;99658.37;4386165;32;33714;-85
2022/06/10 07:32:59;;;;;;;5.28;4.57;;;;;;;26.18;55.00;99645.88;4385429;32;33534;-84
2022/06/10 07:35:27;;;;;;;4.47;3.87;;;;;;;26.29;54.75;99648.22;4359924;32;33002;-85
2022/06/10 07:37:55;;;;;;;3.33;3.03;;;;;;;26.66;54.27;99649.53;4383816;32;33558;-84
2022/06/10 07:43:38;;;;;;;4.82;3.92;;;;;;;26.62;53.27;99648.19;4388469;32;34040;-85
2022/06/10 07:46:08;;;;;;;6.40;3.97;;;;;;;26.64;53.18;99648.88;4384208;32;34030;-84
2022/06/10 07:48:36;;;;;;;7.72;5.03;;;;;;;26.86;54.69;99643.69;4386952;32;33951;-85
2022/06/10 07:51:04;;;;;;;4.20;3.80;;;;;;;26.99;52.83;99644.81;4386772;32;33064;-85
2022/06/10 07:53:32;;;;;;;8.77;4.75;;;;;;;27.17;52.74;99650.03;4383380;32;33565;-85
2022/06/10 07:56:00;;;;;;;4.32;3.90;;;;;;;27.16;54.55;99642.94;4375882;32;32833;-85
2022/06/10 07:58:29;;;;;;;4.82;4.43;;;;;;;27.18;52.98;99643.56;4386640;32;33978;-85
2022/06/10 08:00:58;;;;;;;4.20;3.53;;;;;;;27.27;53.33;99650.66;4374390;32;32964;-85
2022/06/10 08:03:26;;;;;;;8.88;4.07;;;;;;;27.08;53.01;99653.78;4370848;32;34026;-86
2022/06/10 08:05:55;;;;;;;4.03;3.65;;;;;;;27.53;51.94;99657.59;4387389;32;34677;-86
2022/06/10 08:08:22;;;;;;;4.20;3.83;;;;;;;27.24;52.62;99656.41;4371661;32;32862;-86
2022/06/10 08:10:51;;;;;;;4.07;3.60;;;;;;;27.21;51.42;99648.66;4374477;32;32382;-86
2022/06/10 08:13:18;;;;;;;4.78;3.75;;;;;;;27.42;50.28;99660.72;4371948;32;32892;-86
2022/06/10 08:15:48;;;;;;;5.03;4.12;;;;;;;27.08;51.68;99659.22;4376132;32;32488;-86
2022/06/10 08:18:18;;;;;;;6.30;3.92;;;;;;;26.99;52.32;99660.25;4385668;32;34048;-87
2022/06/10 08:23:35;;;;;;;5.97;2.62;;;;;;;27.15;50.90;99654.75;4390540;32;33564;-86
2022/06/10 08:26:05;;;;;;;7.32;4.03;;;;;;;27.07;50.25;99660.22;4384869;32;33952;-86
2022/06/10 08:28:35;;;;;;;7.53;3.30;;;;;;;26.77;49.86;99672.66;4371140;32;33947;-86
2022/06/10 08:31:04;;;;;;;4.78;4.12;;;;;;;26.88;50.45;99668.75;4392447;32;32920;-85
2022/06/10 08:33:32;;;;;;;4.43;3.35;;;;;;;26.47;52.94;99679.69;4394663;32;33960;-86
2022/06/10 08:36:00;;;;;;;6.93;4.15;;;;;;;26.40;54.22;99670.56;4385165;32;33597;-86
2022/06/10 08:38:28;;;;;;;6.15;4.65;;;;;;;26.46;54.04;99672.59;4370547;32;34358;-86
2022/06/10 08:40:59;;;;;;;6.03;4.18;;;;;;;26.43;54.50;99675.66;4370738;32;32601;-86
2022/06/10 08:43:30;;;;;;;;;;;;;;;26.39;54.47;99683.22;4386005;32;32475;-86
2022/06/10 08:46:12;;;;;;;6.15;4.72;;;;;;;26.84;53.13;99679.09;4385320;32;34802;-86
2022/06/10 08:49:02;;;;;;;6.68;5.22;;;;;;;26.72;53.75;99685.91;4388141;32;34448;-87
2022/06/10 08:51:36;;;;;;;5.10;4.60;;;;;;;26.71;54.56;99679.63;4385113;32;33949;-86
2022/06/10 08:54:19;;;;;;;8.00;4.85;;;;;;;26.70;54.30;99683.38;4387927;32;33642;-86
2022/06/10 08:56:49;;;;;;;5.32;4.75;;;;;;;26.26;56.48;99688.34;4383883;32;32892;-86
2022/06/10 08:59:20;;;;;;;6.90;5.28;;;;;;;26.67;55.11;99683.72;4377386;32;33339;-86
2022/06/10 09:01:55;;;;;;;5.60;5.07;;;;;;;26.33;54.78;99691.19;4387145;32;33867;-86
2022/06/10 09:04:46;;;;;;;4.87;4.37;;;;;;;26.38;55.07;99688.81;4393234;32;34823;-86
2022/06/10 09:07:26;;;;;;;7.75;5.22;;;;;;;26.24;55.41;99693.06;4375674;32;33943;-86
2022/06/10 09:09:56;;;;;;;7.25;5.30;;;;;;;26.30;55.18;99693.25;4367773;32;33887;-87
2022/06/10 09:12:44;;;;;;;5.37;4.87;;;;;;;26.40;54.54;99692.22;4383143;32;34420;-86
2022/06/10 09:15:13;;;;;;;7.35;6.05;;;;;;;26.01;55.50;99695.59;4387597;32;34399;-86
2022/06/10 09:17:45;;;;;;;5.35;4.82;;;;;;;26.44;55.53;99688.16;4360508;32;32807;-86
2022/06/10 09:20:21;;;;;;;;;;;;;;;26.57;55.67;99691.19;4380667;32;33419;-86
2022/06/10 09:22:57;;;;;;;7.10;5.32;;;;;;;26.49;55.15;99685.78;4353677;32;33340;-87
2022/06/10 09:25:34;;;;;;;9.98;5.30;;;;;;;26.99;53.83;99687.34;4388663;32;32889;-86
2022/06/10 09:28:01;;;;;;;7.00;6.28;;;;;;;27.07;53.76;99687.31;4366163;32;32560;-87
2022/06/10 09:30:43;;;;;;;15.43;6.45;;;;;;;27.05;54.29;99692.03;4373886;32;33493;-86
2022/06/10 09:33:23;;;;;;;7.95;5.72;;;;;;;27.26;54.02;99683.34;4394674;32;34023;-86
2022/06/10 09:36:16;;;;;;;5.90;4.85;;;;;;;27.16;53.33;99683.56;4373355;32;32601;-86
2022/06/10 09:39:04;;;;;;;6.07;5.00;;;;;;;27.73;51.86;99685.97;4368634;32;32634;-86
2022/06/10 09:41:51;;;;;;;5.80;5.20;;;;;;;27.88;52.54;99687.91;4369421;32;34021;-86
2022/06/10 09:44:26;;;;;;;7.12;5.30;;;;;;;27.86;52.24;99689.94;4364589;32;33517;-86
2022/06/10 09:47:13;;;;;;;7.00;5.43;;;;;;;28.11;53.30;99682.47;4380641;32;33222;-87
2022/06/10 09:49:53;;;;;;;5.85;5.35;;;;;;;28.36;51.26;99685.84;4381499;32;33157;-87
2022/06/10 09:52:27;;;;;;;7.70;5.25;;;;;;;28.58;51.34;99683.06;4376300;32;34393;-87
2022/06/10 09:55:18;;;;;;;6.85;5.03;;;;;;;28.65;51.04;99685.84;4382045;32;33932;-85
2022/06/10 09:58:12;;;;;;;7.13;4.07;;;;;;;28.70;51.77;99678.00;4380285;32;34303;-85
2022/06/10 10:00:55;;;;;;;5.10;4.32;;;;;;;28.78;50.20;99685.22;4395688;32;32451;-86
2022/06/10 10:04:01;;;;;;;6.93;5.03;;;;;;;28.94;49.27;99685.00;4383282;32;33579;-86
2022/06/10 10:06:47;;;;;;;5.12;4.40;;;;;;;29.14;49.88;99690.75;4383208;32;34149;-86
2022/06/10 10:09:25;;;;;;;5.03;4.60;;;;;;;29.22;49.63;99684.38;4387238;32;34055;-85
2022/06/10 10:12:08;;;;;;;5.62;4.10;;;;;;;29.43;49.89;99683.56;4388627;32;34337;-85
2022/06/10 10:14:48;;;;;;;5.10;4.18;;;;;;;28.97;50.46;99686.56;4388057;32;33182;-85
2022/06/10 10:17:18;;;;;;;6.82;3.78;;;;;;;29.25;48.24;99686.72;4386900;32;32592;-85
2022/06/10 10:20:19;;;;;;;4.65;4.25;;;;;;;29.37;47.36;99689.75;4387127;32;32520;-85
2022/06/10 10:23:19;;;;;;;4.35;3.92;;;;;;;29.30;48.17;99687.81;4350140;32;33496;-86
2022/06/10 10:25:47;;;;;;;7.37;3.53;;;;;;;29.17;47.65;99698.53;4360008;32;33231;-86
2022/06/10 10:28:31;;;;;;;7.12;4.22;;;;;;;29.27;47.30;99693.63;4380559;32;32679;-86
2022/06/10 10:31:27;;;;;;;5.50;4.07;;;;;;;29.33;48.04;99687.41;4392782;32;33474;-86
2022/06/10 10:33:58;;;;;;;11.52;4.53;;;;;;;29.37;48.07;99687.06;4379584;32;33078;-85
2022/06/10 10:36:30;;;;;;;11.35;4.25;;;;;;;29.09;49.33;99698.63;4389630;32;34238;-86
2022/06/10 10:39:11;;;;;;;4.60;4.20;;;;;;;29.43;47.76;99691.72;4396481;32;33180;-86
2022/06/10 10:41:42;;;;;;;4.62;4.18;;;;;;;29.76;47.15;99689.37;4370326;32;33576;-85
2022/06/10 10:44:28;;;;;;;4.32;3.62;;;;;;;29.61;47.31;99689.44;4384635;32;33239;-86
2022/06/10 10:47:00;;;;;;;5.95;4.45;;;;;;;30.02;46.87;99694.25;4385681;32;34709;-86
2022/06/10 10:49:31;;;;;;;6.07;4.00;;;;;;;29.68;47.12;99687.66;4382801;32;34007;-86
2022/06/10 10:52:07;;;;;;;5.93;3.58;;;;;;;29.88;45.60;99690.56;4400028;32;32930;-86
2022/06/10 10:54:36;;;;;;;4.47;4.07;;;;;;;30.08;44.45;99691.59;4385245;32;33596;-85
2022/06/10 10:57:35;;;;;;;4.32;3.70;;;;;;;30.05;44.73;99685.69;4349090;32;33547;-85
2022/06/10 11:00:14;;;;;;;4.32;3.42;;;;;;;29.75;45.81;99683.09;4358275;32;33374;-86
2022/06/10 11:02:45;;;;;;;4.07;3.65;;;;;;;29.75;46.99;99679.53;4389676;32;33448;-85
2022/06/10 11:05:15;;;;;;;4.57;4.07;;;;;;;30.16;46.18;99693.38;4396445;32;33044;-86
2022/06/10 11:07:45;;;;;;;4.25;3.65;;;;;;;29.71;46.11;99687.25;4372833;32;34323;-86
2022/06/10 11:10:22;;;;;;;4.68;4.00;;;;;;;30.03;46.07;99683.16;4382149;32;33539;-86
2022/06/10 11:12:51;;;;;;;5.25;4.05;;;;;;;29.98;46.00;99685.62;4357750;32;33437;-85
2022/06/10 11:15:27;;;;;;;7.20;4.10;;;;;;;29.60;46.79;99679.59;4381810;32;32919;-86
2022/06/10 11:17:58;;;;;;;7.62;4.93;;;;;;;29.49;46.54;99682.81;4384634;32;34269;-85
2022/06/10 11:20:33;;;;;;;8.63;4.35;;;;;;;29.62;47.39;99688.41;4387876;32;34283;-86
2022/06/10 11:23:21;;;;;;;4.25;3.65;;;;;;;29.65;48.37;99682.59;4395120;32;33289;-86
2022/06/10 11:26:01;;;;;;;4.50;3.72;;;;;;;29.80;45.95;99680.63;4378710;32;32942;-85
2022/06/10 11:28:34;;;;;;;3.60;3.30;;;;;;;29.80;45.30;99679.81;4377072;32;32627;-85
2022/06/10 11:31:02;;;;;;;4.47;3.90;;;;;;;29.80;45.53;99669.75;4387953;32;34752;-85
2022/06/10 11:33:32;;;;;;;6.28;3.97;;;;;;;29.82;45.98;99673.13;4391085;32;33492;-85
2022/06/10 11:36:02;;;;;;;4.05;3.65;;;;;;;29.74;47.00;99670.53;4377661;32;34744;-85
2022/06/10 11:38:31;;;;;;;6.78;3.35;;;;;;;29.97;45.44;99674.94;4373148;32;33464;-85
2022/06/10 11:41:14;;;;;;;4.62;3.97;;;;;;;30.03;45.03;99666.84;4387992;32;33781;-85
2022/06/10 11:43:46;;;;;;;3.53;3.20;;;;;;;30.12;46.05;99672.16;4384253;32;34347;-85
2022/06/10 11:46:39;;;;;;;5.57;4.03;;;;;;;30.23;44.75;99683.34;4388842;32;33857;-85
2022/06/10 11:49:24;;;;;;;4.32;3.92;;;;;;;30.45;43.73;99677.88;4400412;32;33929;-85
2022/06/10 11:52:16;;;;;;;4.18;3.60;;;;;;;30.43;44.24;99666.31;4385253;32;34226;-85
2022/06/10 11:54:47;;;;;;;3.53;3.22;;;;;;;30.43;44.73;99659.00;4365654;32;32731;-85
2022/06/10 12:00:41;;;;;;;4.30;3.90;;;;;;;30.61;45.11;99661.22;4384684;32;33322;-85
2022/06/10 12:03:34;;;;;;;3.90;3.25;;;;;;;30.10;44.93;99654.12;4383095;32;32934;-85
2022/06/10 12:06:15;;;;;;;10.18;3.65;;;;;;;30.47;45.17;99646.66;4383166;32;33279;-85
2022/06/10 12:08:56;;;;;;;8.20;3.37;;;;;;;30.74;43.89;99644.97;4372301;32;32788;-85
2022/06/10 12:11:45;;;;;;;7.57;3.22;;;;;;;30.41;44.54;99641.19;4385090;32;33212;-85
2022/06/10 12:14:37;;;;;;;10.32;3.70;;;;;;;30.74;43.37;99633.25;4370648;32;34769;-85
2022/06/10 12:17:11;;;;;;;8.55;3.40;;;;;;;30.27;43.27;99632.06;4385653;32;32987;-85